Time;durP1;ratioP1;P1;durP2;ratioP2;P2;SDS_P1;SDS_P2;PMS_P1;PMS_P2;Temp;Humidity;BMP_temperature;BMP_pressure;BME280_temperature;BME280_humidity;BME280_pressure;Samples;Min_cycle;Max_cycle;Signal;HPM_P1;HPM_P2
2022/08/06 00:02:29;;;;;;;7.17;5.50;;;;;;;22.11;65.29;100137.33;2158906;81;21032;-81
2022/08/06 00:05:30;;;;;;;5.87;5.28;;;;;;;22.10;65.59;100146.47;2156255;81;21021;-81
2022/08/06 00:08:31;;;;;;;5.33;4.85;;;;;;;22.06;65.52;100163.70;2153975;81;21392;-81
2022/08/06 00:11:32;;;;;;;8.63;4.80;;;;;;;22.02;65.79;100176.58;2154978;81;21055;-81
2022/08/06 00:14:34;;;;;;;5.65;5.12;;;;;;;21.97;65.99;100180.55;2153740;81;21041;-81
2022/08/06 00:17:35;;;;;;;6.85;5.78;;;;;;;21.93;66.18;100179.69;2150168;81;21083;-81
2022/08/06 00:20:36;;;;;;;5.53;4.92;;;;;;;21.97;66.33;100179.20;2153069;81;21020;-82
2022/08/06 00:23:37;;;;;;;5.97;5.20;;;;;;;21.96;66.69;100184.30;2151040;81;21012;-81
2022/08/06 00:26:39;;;;;;;8.80;5.62;;;;;;;21.90;66.84;100196.34;2148953;81;21010;-82
2022/08/06 00:29:40;;;;;;;6.15;5.55;;;;;;;21.87;66.91;100199.52;2150549;81;21514;-81
2022/08/06 00:32:41;;;;;;;5.85;4.83;;;;;;;21.88;67.23;100207.94;2147841;81;21124;-81
2022/08/06 00:35:45;;;;;;;8.23;5.40;;;;;;;21.87;67.36;100214.38;2150992;81;21043;-83
2022/08/06 00:38:46;;;;;;;7.00;5.15;;;;;;;21.85;67.61;100234.58;2156356;81;21075;-84
2022/08/06 00:41:47;;;;;;;7.22;5.50;;;;;;;21.79;68.13;100248.51;2152787;81;21109;-84
2022/08/06 00:44:48;;;;;;;8.20;5.50;;;;;;;21.73;68.42;100260.27;2145155;81;21001;-83
2022/08/06 00:47:49;;;;;;;6.15;5.55;;;;;;;21.68;68.40;100273.64;2153481;81;21434;-84
2022/08/06 00:50:50;;;;;;;7.53;5.28;;;;;;;21.66;68.81;100285.23;2149133;81;22274;-84
2022/08/06 00:53:52;;;;;;;9.03;6.12;;;;;;;21.58;69.10;100285.59;2154522;81;21001;-83
2022/08/06 00:56:53;;;;;;;8.50;5.90;;;;;;;21.48;69.40;100293.75;2126012;81;21056;-82
2022/08/06 00:59:54;;;;;;;10.82;5.85;;;;;;;21.45;69.76;100296.89;2149277;81;21024;-82
2022/08/06 01:02:55;;;;;;;9.10;6.58;;;;;;;21.44;70.09;100306.05;2156518;81;21532;-82
2022/08/06 01:05:56;;;;;;;8.85;5.42;;;;;;;21.41;70.17;100295.73;2161297;81;21452;-81
2022/08/06 01:08:57;;;;;;;7.60;5.62;;;;;;;21.42;70.52;100294.66;2152358;81;21049;-81
2022/08/06 01:11:58;;;;;;;9.23;5.65;;;;;;;21.39;70.62;100287.03;2147656;82;21036;-81
2022/08/06 01:15:00;;;;;;;7.65;5.55;;;;;;;21.39;70.88;100277.59;2118892;81;21024;-81
2022/08/06 01:18:11;;;;;;;11.20;6.20;;;;;;;21.31;71.50;100267.64;2160521;81;20991;-80
2022/08/06 01:21:50;;;;;;;8.03;5.83;;;;;;;21.14;71.87;100253.48;2161831;81;20973;-81
2022/08/06 01:25:16;;;;;;;10.32;5.65;;;;;;;21.01;72.50;100257.23;2147184;81;21030;-82
2022/08/06 01:28:26;;;;;;;12.15;6.10;;;;;;;20.87;73.19;100253.11;2155385;81;20989;-81
2022/08/06 01:31:38;;;;;;;6.63;6.00;;;;;;;20.77;74.58;100259.05;2155439;81;20981;-81
2022/08/06 01:34:56;;;;;;;7.08;6.35;;;;;;;20.73;73.86;100252.48;2155183;81;21057;-82
2022/08/06 01:38:05;;;;;;;9.70;6.95;;;;;;;20.71;74.15;100255.11;2149386;81;20943;-81
2022/08/06 01:41:11;;;;;;;8.80;6.40;;;;;;;20.67;73.81;100256.64;2162466;81;21546;-80
2022/08/06 01:44:17;;;;;;;7.53;6.78;;;;;;;20.63;74.75;100258.13;2152217;81;20996;-80
2022/08/06 01:47:20;;;;;;;7.12;5.90;;;;;;;20.59;74.35;100259.12;2148389;81;21064;-79
2022/08/06 01:50:32;;;;;;;7.80;6.20;;;;;;;20.57;76.04;100263.38;2154098;81;21040;-81
2022/08/06 01:53:37;;;;;;;8.30;6.40;;;;;;;20.55;75.20;100264.16;2151865;81;21057;-81
2022/08/06 01:56:41;;;;;;;8.75;6.45;;;;;;;20.50;75.95;100271.25;2152554;81;21880;-81
2022/08/06 01:59:47;;;;;;;6.78;6.17;;;;;;;20.45;75.57;100267.87;2152457;81;21064;-81
2022/08/06 02:02:50;;;;;;;7.45;6.62;;;;;;;20.46;75.81;100270.05;2145775;81;21029;-81
2022/08/06 02:05:55;;;;;;;7.05;6.17;;;;;;;20.42;76.60;100273.73;2159122;81;21108;-81
2022/08/06 02:09:02;;;;;;;7.35;6.45;;;;;;;20.43;76.10;100271.85;2161040;81;21492;-80
2022/08/06 02:12:10;;;;;;;8.35;7.47;;;;;;;20.41;76.73;100273.41;2152438;81;20958;-80
2022/08/06 02:15:23;;;;;;;7.70;6.65;;;;;;;20.40;76.67;100285.78;2150980;81;21048;-80
2022/08/06 02:18:27;;;;;;;7.12;6.42;;;;;;;20.41;76.79;100307.09;2150468;81;21085;-81
2022/08/06 02:21:30;;;;;;;8.78;7.40;;;;;;;20.41;76.84;100321.92;2155373;81;21766;-81
2022/08/06 02:24:34;;;;;;;12.58;6.97;;;;;;;20.44;76.83;100343.55;2146490;81;21033;-81
2022/08/06 02:27:39;;;;;;;10.35;6.85;;;;;;;20.46;76.82;100349.02;2159412;81;21041;-81
2022/08/06 02:30:44;;;;;;;7.55;6.85;;;;;;;20.46;77.35;100353.06;2150916;81;21534;-81
2022/08/06 02:33:46;;;;;;;10.78;6.85;;;;;;;20.46;77.52;100353.06;2156855;81;21053;-81
2022/08/06 02:37:19;;;;;;;7.45;6.33;;;;;;;20.50;77.80;100361.54;2157028;81;20946;-81
2022/08/06 02:40:25;;;;;;;12.07;6.05;;;;;;;20.50;77.83;100367.75;2158313;81;21554;-81
2022/08/06 02:43:32;;;;;;;8.83;6.33;;;;;;;20.54;77.95;100371.66;2153875;81;21033;-81
2022/08/06 02:46:41;;;;;;;9.75;6.50;;;;;;;20.56;78.07;100372.80;2157556;81;21598;-80
2022/08/06 02:49:47;;;;;;;9.20;6.80;;;;;;;20.57;78.19;100376.59;2151991;81;21029;-82
2022/08/06 02:53:05;;;;;;;8.00;7.10;;;;;;;20.54;78.54;100384.31;2154450;81;21060;-81
2022/08/06 02:56:11;;;;;;;8.95;7.40;;;;;;;20.51;78.48;100385.55;2158870;81;21054;-81
2022/08/06 02:59:17;;;;;;;11.50;8.03;;;;;;;20.45;78.52;100385.11;2162709;81;21004;-81
2022/08/06 03:02:22;;;;;;;11.05;8.60;;;;;;;20.39;78.88;100396.80;2149094;81;21056;-81
2022/08/06 03:05:25;;;;;;;12.13;9.43;;;;;;;20.30;79.73;100399.47;2154397;81;21090;-82
2022/08/06 03:08:29;;;;;;;12.07;9.60;;;;;;;20.15;78.90;100399.31;2154359;81;21079;-81
2022/08/06 03:11:34;;;;;;;13.00;9.78;;;;;;;20.07;78.66;100404.98;2159402;81;20929;-82
2022/08/06 03:14:39;;;;;;;12.82;10.05;;;;;;;19.97;79.02;100413.30;2156550;81;21095;-81
2022/08/06 03:17:42;;;;;;;14.38;10.80;;;;;;;19.84;79.10;100411.53;2163320;81;21649;-80
2022/08/06 03:20:44;;;;;;;12.03;10.23;;;;;;;19.74;78.77;100409.84;2156527;82;21088;-82
2022/08/06 03:23:47;;;;;;;13.95;10.35;;;;;;;19.69;78.82;100407.30;2156585;81;21008;-81
2022/08/06 03:26:50;;;;;;;12.70;9.30;;;;;;;19.62;79.01;100406.48;2157098;80;21066;-81
2022/08/06 03:29:52;;;;;;;12.25;9.45;;;;;;;19.57;78.82;100409.03;2158580;81;21024;-81
2022/08/06 03:32:54;;;;;;;11.05;9.03;;;;;;;19.52;79.23;100401.31;2157537;81;21041;-80
2022/08/06 03:35:58;;;;;;;10.82;8.48;;;;;;;19.47;78.63;100400.61;2153880;81;21024;-80
2022/08/06 03:39:05;;;;;;;9.58;8.58;;;;;;;19.40;79.34;100395.29;2156061;81;21081;-81
2022/08/06 03:42:07;;;;;;;10.25;8.25;;;;;;;19.33;79.33;100370.28;2162678;80;21652;-81
2022/08/06 03:45:09;;;;;;;10.43;7.58;;;;;;;19.30;78.67;100368.56;2150491;81;21060;-82
2022/08/06 03:48:15;;;;;;;9.38;8.00;;;;;;;19.25;78.80;100383.47;2154620;81;21036;-81
2022/08/06 03:51:20;;;;;;;10.38;7.15;;;;;;;19.26;78.85;100394.55;2156427;81;21091;-81
2022/08/06 03:54:26;;;;;;;8.78;5.83;;;;;;;19.25;79.56;100390.72;2178566;80;21912;-81
2022/08/06 03:57:36;;;;;;;7.83;5.72;;;;;;;19.20;78.85;100408.88;2180505;81;21515;-81
2022/08/06 04:00:58;;;;;;;9.20;4.50;;;;;;;19.17;78.64;100410.63;2180561;80;21000;-81
2022/08/06 04:04:00;;;;;;;4.92;4.10;;;;;;;19.10;78.41;100420.61;2178338;81;21040;-81
2022/08/06 04:07:02;;;;;;;5.95;4.37;;;;;;;19.09;78.30;100428.88;2151789;81;21068;-81
2022/08/06 04:10:05;;;;;;;6.10;3.58;;;;;;;18.94;78.46;100425.95;2181744;80;21092;-81
2022/08/06 04:13:10;;;;;;;4.15;3.35;;;;;;;18.87;78.68;100431.08;2176124;81;21015;-81
2022/08/06 04:16:14;;;;;;;3.98;3.58;;;;;;;18.78;78.34;100435.35;2170533;80;21580;-82
2022/08/06 04:19:18;;;;;;;6.67;3.22;;;;;;;18.71;78.82;100435.84;2164412;81;20982;-82
2022/08/06 04:22:20;;;;;;;3.02;2.72;;;;;;;18.64;78.82;100451.67;2187813;80;21029;-82
2022/08/06 04:25:25;;;;;;;4.17;3.15;;;;;;;18.58;78.27;100464.09;2193873;80;21539;-81
2022/08/06 04:28:29;;;;;;;3.55;2.80;;;;;;;18.56;78.26;100479.62;2180974;80;20962;-81
2022/08/06 04:31:32;;;;;;;3.50;2.80;;;;;;;18.54;78.07;100492.44;2195512;80;21499;-81
2022/08/06 04:34:36;;;;;;;6.10;3.42;;;;;;;18.55;78.04;100491.39;2144663;81;21061;-78
2022/08/06 04:37:38;;;;;;;4.33;3.20;;;;;;;18.56;77.99;100507.84;2184979;80;21024;-80
2022/08/06 04:40:40;;;;;;;3.80;2.50;;;;;;;18.52;78.03;100528.09;2182199;81;21642;-80
2022/08/06 04:43:42;;;;;;;4.42;2.20;;;;;;;18.43;77.61;100540.91;2176198;81;20974;-77
2022/08/06 04:46:48;;;;;;;8.30;3.67;;;;;;;18.41;77.51;100551.56;2178358;81;21040;-87
2022/08/06 04:49:47;;;;;;;3.65;2.62;;;;;;;18.38;77.63;100554.14;2174920;81;21099;-85
2022/08/06 04:52:49;;;;;;;7.12;3.60;;;;;;;18.27;77.35;100554.27;2177232;81;21053;-82
2022/08/06 04:55:50;;;;;;;9.90;3.05;;;;;;;18.27;77.35;100554.27;2164628;81;21083;-81
2022/08/06 04:58:51;;;;;;;4.47;3.20;;;;;;;18.37;77.89;100576.16;2174341;81;21091;-68
2022/08/06 05:01:52;;;;;;;4.12;3.08;;;;;;;18.32;77.75;100586.69;2169401;81;21029;-82
2022/08/06 05:04:57;;;;;;;3.77;2.65;;;;;;;18.32;77.94;100590.72;2161666;81;21565;-82
2022/08/06 05:08:01;;;;;;;3.70;2.70;;;;;;;18.26;77.91;100614.89;2180757;80;21029;-79
2022/08/06 05:11:12;;;;;;;3.12;2.83;;;;;;;18.11;77.68;100615.09;2143086;81;21478;-81
2022/08/06 05:14:21;;;;;;;4.30;2.83;;;;;;;18.02;78.08;100627.03;2146717;81;21559;-82
2022/08/06 05:17:27;;;;;;;5.20;3.10;;;;;;;17.87;78.04;100630.71;2182313;80;21013;-81
2022/08/06 05:20:33;;;;;;;8.90;5.05;;;;;;;17.75;77.96;100640.36;2180949;80;21076;-81
2022/08/06 05:23:47;;;;;;;4.08;3.08;;;;;;;17.70;78.42;100642.29;2174528;80;20966;-82
2022/08/06 05:26:49;;;;;;;5.37;3.05;;;;;;;17.63;78.09;100654.05;2174983;80;20968;-84
2022/08/06 05:29:51;;;;;;;4.83;3.70;;;;;;;17.50;77.96;100675.44;2153029;81;20934;-82
2022/08/06 05:32:52;;;;;;;4.67;3.80;;;;;;;17.38;78.07;100672.49;2152204;81;21507;-77
2022/08/06 05:35:54;;;;;;;4.45;3.37;;;;;;;17.18;77.75;100686.61;2148621;81;21068;-74
2022/08/06 05:38:56;;;;;;;6.80;3.37;;;;;;;17.08;77.63;100700.03;2155491;81;21025;-77
2022/08/06 05:41:57;;;;;;;4.95;3.17;;;;;;;16.93;77.58;100704.98;2156429;81;21101;-78
2022/08/06 05:44:58;;;;;;;8.63;3.22;;;;;;;16.69;77.80;100710.70;2156956;81;21056;-77
2022/08/06 05:48:03;;;;;;;4.35;2.62;;;;;;;16.52;77.85;100728.89;2149548;81;21080;-77
2022/08/06 05:51:16;;;;;;;3.20;2.20;;;;;;;16.40;77.95;100727.75;2153514;81;21001;-74
2022/08/06 05:54:32;;;;;;;5.70;2.50;;;;;;;16.31;78.59;100730.54;2143928;81;21013;-75
2022/08/06 05:57:53;;;;;;;2.58;2.27;;;;;;;16.14;78.28;100732.61;2135974;83;21001;-76
2022/08/06 06:00:59;;;;;;;4.58;2.27;;;;;;;16.03;78.87;100745.14;2138787;83;20997;-76
2022/08/06 06:04:00;;;;;;;3.65;2.40;;;;;;;15.97;78.79;100739.72;2136659;83;21034;-76
2022/08/06 06:07:02;;;;;;;5.30;2.35;;;;;;;15.97;78.75;100749.09;2133488;83;21068;-76
2022/08/06 06:10:06;;;;;;;4.17;2.92;;;;;;;15.96;78.90;100748.75;2137907;83;20977;-72
2022/08/06 06:13:07;;;;;;;3.47;2.00;;;;;;;15.97;79.07;100757.94;2131348;82;21033;-74
2022/08/06 06:16:23;;;;;;;4.05;2.00;;;;;;;15.99;79.09;100755.89;2134113;83;21469;-75
2022/08/06 06:19:45;;;;;;;6.10;2.87;;;;;;;16.05;79.20;100766.35;2131879;81;21045;-75
2022/08/06 06:23:01;;;;;;;2.83;2.27;;;;;;;16.04;78.96;100759.35;2129421;83;21516;-77
2022/08/06 06:26:18;;;;;;;3.40;2.33;;;;;;;16.11;79.12;100773.15;2135271;83;21018;-75
2022/08/06 06:29:42;;;;;;;3.22;2.40;;;;;;;16.11;79.14;100771.81;2130778;83;21066;-76
2022/08/06 06:32:57;;;;;;;5.08;2.30;;;;;;;16.09;79.14;100776.52;2129888;83;21532;-75
2022/08/06 06:36:02;;;;;;;3.52;2.22;;;;;;;16.09;79.38;100781.86;2135650;83;21409;-78
2022/08/06 06:39:28;;;;;;;4.33;2.30;;;;;;;16.12;79.25;100796.21;2135526;83;21029;-77
2022/08/06 06:42:49;;;;;;;3.25;2.30;;;;;;;16.17;79.44;100800.20;2135402;82;21021;-77
2022/08/06 06:45:59;;;;;;;5.55;2.37;;;;;;;16.19;79.44;100794.98;2128333;83;21655;-77
2022/08/06 06:49:22;;;;;;;3.90;1.90;;;;;;;16.25;79.53;100806.78;2133064;81;21090;-82
2022/08/06 06:52:40;;;;;;;2.65;2.45;;;;;;;16.29;79.48;100795.50;2130922;82;21099;-80
2022/08/06 06:55:48;;;;;;;5.15;2.37;;;;;;;16.34;79.49;100806.99;2145005;81;21089;-75
2022/08/06 06:58:57;;;;;;;3.92;2.45;;;;;;;16.33;79.44;100812.86;2146726;81;21392;-74
2022/08/06 07:02:00;;;;;;;4.33;2.87;;;;;;;16.36;79.49;100813.00;2129921;81;21105;-73
2022/08/06 07:05:06;;;;;;;5.83;2.50;;;;;;;16.36;79.47;100806.30;2148604;81;21052;-73
2022/08/06 07:08:09;;;;;;;4.67;2.65;;;;;;;16.38;79.47;100815.48;2128138;81;21011;-73
2022/08/06 07:11:16;;;;;;;3.90;2.67;;;;;;;16.36;79.43;100821.03;2148616;81;21017;-73
2022/08/06 07:14:21;;;;;;;5.05;2.87;;;;;;;16.34;79.51;100806.48;2146188;81;21506;-73
2022/08/06 07:17:25;;;;;;;3.92;2.85;;;;;;;16.33;79.46;100814.69;2141592;81;20999;-73
2022/08/06 07:20:30;;;;;;;5.22;3.05;;;;;;;16.32;79.44;100812.52;2142533;81;21053;-72
2022/08/06 07:23:32;;;;;;;4.83;2.70;;;;;;;16.32;79.56;100816.54;2145708;81;21352;-72
2022/08/06 07:26:35;;;;;;;6.50;3.02;;;;;;;16.38;79.80;100820.31;2140761;81;21743;-76
2022/08/06 07:29:37;;;;;;;6.15;3.22;;;;;;;16.37;79.80;100817.33;2147012;81;21030;-72
2022/08/06 07:32:39;;;;;;;6.10;2.35;;;;;;;16.40;79.88;100823.64;2149829;81;21103;-73
2022/08/06 07:35:45;;;;;;;5.60;3.20;;;;;;;16.43;79.66;100817.09;2149157;81;22307;-73
2022/08/06 07:38:48;;;;;;;5.78;3.15;;;;;;;16.47;79.74;100822.38;2143346;81;21046;-74
2022/08/06 07:41:52;;;;;;;6.60;3.20;;;;;;;16.50;79.73;100835.39;2147930;81;21068;-76
2022/08/06 07:44:59;;;;;;;5.20;3.70;;;;;;;16.51;79.75;100836.55;2147288;81;21051;-76
2022/08/06 07:48:05;;;;;;;3.75;3.30;;;;;;;16.51;79.67;100833.05;2150432;81;21488;-73
2022/08/06 07:51:06;;;;;;;4.20;3.20;;;;;;;16.48;79.65;100832.09;2148188;81;21048;-73
2022/08/06 07:54:12;;;;;;;4.78;3.40;;;;;;;16.50;79.65;100836.24;2140006;81;21033;-72
2022/08/06 07:57:14;;;;;;;4.60;3.50;;;;;;;16.55;79.74;100838.34;2139101;83;21543;-73
2022/08/06 08:00:16;;;;;;;5.10;3.40;;;;;;;16.61;79.67;100847.47;2134156;81;21065;-72
2022/08/06 08:06:40;;;;;;;6.67;3.47;;;;;;;16.62;79.38;100856.67;2133859;83;21014;-76
2022/08/06 08:09:44;;;;;;;3.25;2.95;;;;;;;16.60;79.39;100865.40;2131131;82;21548;-72
2022/08/06 08:12:45;;;;;;;6.37;3.30;;;;;;;16.65;79.41;100867.02;2129415;82;21112;-74
2022/08/06 08:15:48;;;;;;;5.08;3.30;;;;;;;16.73;79.59;100875.45;2133440;83;21005;-73
2022/08/06 08:18:51;;;;;;;3.60;3.30;;;;;;;16.73;79.47;100880.81;2129988;83;21037;-76
2022/08/06 08:21:56;;;;;;;8.53;3.40;;;;;;;16.75;79.41;100876.08;2135362;83;21063;-72
2022/08/06 08:24:56;;;;;;;4.53;3.33;;;;;;;16.77;79.27;100876.76;2134830;83;21105;-72
2022/08/06 08:27:58;;;;;;;4.08;3.20;;;;;;;16.79;79.16;100884.11;2136466;83;21030;-72
2022/08/06 08:31:01;;;;;;;6.47;3.50;;;;;;;16.84;79.27;100875.00;2134179;82;21059;-76
2022/08/06 08:34:02;;;;;;;4.22;3.30;;;;;;;16.89;79.07;100887.81;2138118;81;20981;-72
2022/08/06 08:37:04;;;;;;;4.85;3.37;;;;;;;16.96;79.06;100896.25;2129972;82;21092;-72
2022/08/06 08:40:07;;;;;;;5.58;3.83;;;;;;;17.07;79.05;100899.47;2131070;83;21037;-73
2022/08/06 08:43:12;;;;;;;4.20;3.77;;;;;;;17.10;78.43;100909.81;2136522;82;21006;-73
2022/08/06 08:46:14;;;;;;;6.67;3.72;;;;;;;17.16;78.56;100921.11;2132927;83;21077;-72
2022/08/06 08:49:41;;;;;;;8.05;3.98;;;;;;;17.11;77.85;100916.30;2128992;82;21615;-73
2022/08/06 08:52:44;;;;;;;6.60;3.85;;;;;;;17.02;77.68;100916.94;2129843;83;21088;-72
2022/08/06 08:55:46;;;;;;;3.72;3.35;;;;;;;17.02;77.78;100914.25;2140977;81;21014;-72
2022/08/06 08:59:09;;;;;;;5.20;3.42;;;;;;;17.06;77.65;100915.21;2150898;81;21016;-72
2022/08/06 09:02:13;;;;;;;4.50;3.27;;;;;;;17.02;77.32;100918.27;2074592;84;21496;-72
2022/08/06 09:05:16;;;;;;;6.75;3.22;;;;;;;17.06;77.03;100918.72;2075215;84;20933;-72
2022/08/06 09:08:18;;;;;;;4.80;3.20;;;;;;;17.10;77.08;100917.34;2075932;84;21359;-73
2022/08/06 09:11:20;;;;;;;11.48;3.60;;;;;;;17.15;76.85;100926.16;2081591;84;20959;-74
2022/08/06 09:14:21;;;;;;;5.53;3.72;;;;;;;17.19;76.60;100926.09;2053957;85;21059;-73
2022/08/06 09:17:25;;;;;;;5.15;3.33;;;;;;;17.31;76.75;100919.19;2077041;84;21050;-72
2022/08/06 09:20:26;;;;;;;5.42;3.85;;;;;;;17.42;76.47;100918.67;2061039;84;21056;-72
2022/08/06 09:23:27;;;;;;;3.50;3.20;;;;;;;17.53;76.15;100915.98;2079212;84;20930;-77
2022/08/06 09:26:30;;;;;;;4.47;3.40;;;;;;;17.73;75.85;100916.67;2064567;84;20938;-72
2022/08/06 09:29:32;;;;;;;3.17;2.80;;;;;;;17.95;75.64;100922.34;2056914;85;21585;-72
2022/08/06 09:32:46;;;;;;;6.03;3.30;;;;;;;18.11;74.92;100927.94;2079095;84;20994;-77
2022/08/06 09:35:58;;;;;;;4.37;3.37;;;;;;;18.27;74.46;100926.30;2077498;84;21042;-73
2022/08/06 09:39:00;;;;;;;5.12;3.17;;;;;;;18.37;73.76;100932.64;2075829;84;21064;-73
2022/08/06 09:42:03;;;;;;;4.22;2.90;;;;;;;18.29;72.72;100929.59;2073620;84;21115;-73
2022/08/06 09:45:13;;;;;;;4.45;3.00;;;;;;;18.22;72.51;100922.02;2077004;84;21074;-72
2022/08/06 09:48:19;;;;;;;4.08;2.72;;;;;;;18.23;72.16;100931.73;2048206;84;21027;-74
2022/08/06 09:51:23;;;;;;;2.90;2.67;;;;;;;18.30;71.99;100931.27;2077000;84;21046;-72
2022/08/06 09:54:30;;;;;;;4.67;2.67;;;;;;;18.45;71.55;100929.80;2074742;84;21026;-74
2022/08/06 09:57:44;;;;;;;4.00;2.77;;;;;;;18.53;71.15;100939.56;2057823;85;21110;-73
2022/08/06 10:00:46;;;;;;;4.35;2.60;;;;;;;18.63;71.00;100940.52;2073344;84;21006;-75
2022/08/06 10:03:49;;;;;;;3.90;2.40;;;;;;;18.75;69.93;100938.45;2072784;84;21061;-73
2022/08/06 10:07:01;;;;;;;3.00;2.67;;;;;;;18.90;70.29;100945.53;2073813;84;21502;-73
2022/08/06 10:10:06;;;;;;;4.25;2.70;;;;;;;19.08;69.99;100941.75;2074604;84;21056;-74
2022/08/06 10:13:19;;;;;;;4.03;2.47;;;;;;;19.17;68.66;100944.56;2074347;84;21027;-74
2022/08/06 10:16:29;;;;;;;3.70;2.45;;;;;;;19.23;68.82;100957.22;2078927;84;21517;-74
2022/08/06 10:19:31;;;;;;;4.47;2.72;;;;;;;19.34;67.93;100955.77;2075173;84;21021;-74
2022/08/06 10:22:32;;;;;;;7.17;2.90;;;;;;;19.45;67.65;100955.69;2077996;84;21004;-77
2022/08/06 10:25:35;;;;;;;2.40;2.20;;;;;;;19.70;67.34;100954.61;2068794;84;20992;-74
2022/08/06 10:28:39;;;;;;;4.85;2.45;;;;;;;19.90;66.97;100959.47;2073361;84;20955;-74
2022/08/06 10:31:41;;;;;;;5.85;2.47;;;;;;;20.02;66.56;100960.20;2074860;84;21009;-74
2022/08/06 10:34:47;;;;;;;3.72;2.25;;;;;;;20.06;65.99;100958.75;2072314;84;21037;-73
2022/08/06 10:37:56;;;;;;;2.30;2.10;;;;;;;20.12;65.94;100961.44;2074322;84;21039;-74
2022/08/06 10:40:59;;;;;;;2.75;2.37;;;;;;;20.28;65.35;100963.39;2072148;84;21057;-74
2022/08/06 10:44:02;;;;;;;2.55;2.12;;;;;;;20.43;64.88;100959.93;2080291;84;21027;-74
2022/08/06 10:47:04;;;;;;;4.25;2.47;;;;;;;20.43;64.17;100953.19;2074970;84;21027;-74
2022/08/06 10:50:07;;;;;;;2.40;2.20;;;;;;;20.59;63.70;100946.02;2072217;84;21045;-72
2022/08/06 10:53:10;;;;;;;4.83;2.58;;;;;;;21.00;64.04;100951.54;2071055;84;22430;-72
2022/08/06 10:56:14;;;;;;;3.77;2.33;;;;;;;21.08;62.52;100949.13;2071786;84;21075;-72
2022/08/06 10:59:17;;;;;;;2.72;2.15;;;;;;;21.01;62.36;100955.91;2076065;84;20964;-71
2022/08/06 11:02:52;;;;;;;8.28;2.25;;;;;;;20.97;61.41;100957.89;2077971;84;21596;-77
2022/08/06 11:05:59;;;;;;;3.85;2.35;;;;;;;21.00;62.19;100950.72;2077358;85;21035;-73
2022/08/06 11:09:43;;;;;;;3.65;2.12;;;;;;;21.05;59.45;100950.91;2074412;85;21046;-76
2022/08/06 11:13:12;;;;;;;7.45;2.70;;;;;;;21.11;61.27;100955.96;2074626;85;21011;-75
2022/08/06 11:16:26;;;;;;;3.08;1.77;;;;;;;21.44;61.12;100951.22;2047285;85;21053;-72
2022/08/06 11:19:49;;;;;;;3.45;1.90;;;;;;;21.77;60.79;100946.63;2074708;84;20973;-73
2022/08/06 11:22:51;;;;;;;2.05;1.80;;;;;;;22.12;60.15;100937.46;2077056;85;20971;-72
2022/08/06 11:26:00;;;;;;;3.95;1.80;;;;;;;22.46;59.19;100938.78;2056020;85;21025;-73
2022/08/06 11:29:03;;;;;;;4.20;2.00;;;;;;;22.68;58.81;100936.45;2075797;84;21191;-74
2022/08/06 11:32:10;;;;;;;5.00;1.82;;;;;;;22.82;57.25;100940.64;2075153;85;21030;-73
2022/08/06 11:35:37;;;;;;;2.08;1.80;;;;;;;22.47;57.28;100939.11;2062221;84;21027;-73
2022/08/06 11:38:57;;;;;;;4.58;2.05;;;;;;;22.23;56.70;100938.11;2076956;85;21065;-72
2022/08/06 11:42:02;;;;;;;2.87;1.80;;;;;;;22.14;56.78;100939.42;2075220;84;21078;-76
2022/08/06 11:45:04;;;;;;;3.58;2.25;;;;;;;22.58;56.48;100937.00;2076791;84;21540;-74
2022/08/06 11:48:07;;;;;;;2.47;1.67;;;;;;;22.86;55.45;100938.30;2071063;85;21069;-74
2022/08/06 11:51:49;;;;;;;2.80;1.30;;;;;;;22.91;54.78;100937.63;2071167;85;21153;-74
2022/08/06 11:55:04;;;;;;;2.27;1.67;;;;;;;22.75;54.46;100938.56;2079612;84;21052;-72
2022/08/06 11:58:20;;;;;;;4.17;1.70;;;;;;;22.67;53.48;100937.52;2079215;84;20985;-72
2022/08/06 12:01:27;;;;;;;2.20;1.37;;;;;;;22.30;53.82;100936.67;2074486;83;21596;-74
2022/08/06 12:04:44;;;;;;;3.30;1.57;;;;;;;22.24;53.56;100939.75;2098024;83;21057;-72
2022/08/06 12:07:50;;;;;;;3.05;1.40;;;;;;;22.49;53.21;100934.28;2053233;85;21078;-72
2022/08/06 12:11:24;;;;;;;3.83;1.37;;;;;;;22.86;52.67;100925.30;2060086;84;21522;-72
2022/08/06 12:14:41;;;;;;;1.82;1.40;;;;;;;23.18;52.30;100928.66;2058857;85;21029;-74
2022/08/06 12:17:57;;;;;;;3.60;1.30;;;;;;;23.11;51.72;100934.67;2059601;85;21053;-72
2022/08/06 12:20:58;;;;;;;2.33;1.17;;;;;;;22.86;51.39;100937.48;2057226;85;21021;-72
2022/08/06 12:24:00;;;;;;;3.33;1.40;;;;;;;23.02;52.01;100936.34;2060316;84;21102;-72
2022/08/06 12:27:01;;;;;;;3.02;1.30;;;;;;;23.27;51.80;100934.84;2059986;85;21040;-74
2022/08/06 12:30:06;;;;;;;1.75;1.35;;;;;;;23.45;50.97;100931.77;2058842;85;21011;-72
2022/08/06 12:33:08;;;;;;;2.37;1.40;;;;;;;23.56;51.15;100935.56;2098967;83;21547;-74
2022/08/06 12:36:10;;;;;;;3.20;1.30;;;;;;;23.44;50.13;100935.55;2073767;84;21019;-72
2022/08/06 12:39:10;;;;;;;1.30;1.20;;;;;;;23.17;49.84;100938.66;2075198;84;21039;-73
2022/08/06 12:42:24;;;;;;;1.72;1.20;;;;;;;23.20;49.83;100925.16;2073831;84;21099;-76
2022/08/06 12:45:28;;;;;;;1.85;1.30;;;;;;;23.22;49.44;100927.12;2077089;84;21013;-74
2022/08/06 12:48:32;;;;;;;1.98;1.80;;;;;;;23.01;48.25;100921.17;2077081;84;21483;-74
2022/08/06 12:51:34;;;;;;;2.90;1.62;;;;;;;23.06;48.39;100924.56;2075124;84;21040;-72
2022/08/06 12:54:35;;;;;;;2.75;1.62;;;;;;;23.18;48.71;100922.70;2079261;84;21065;-73
2022/08/06 12:57:37;;;;;;;3.05;2.10;;;;;;;23.09;47.62;100915.13;2075636;84;20985;-73
2022/08/06 13:00:42;;;;;;;1.92;1.80;;;;;;;22.80;48.49;100919.75;2072225;84;21094;-73
2022/08/06 13:03:50;;;;;;;3.55;2.15;;;;;;;22.77;48.14;100919.38;2079464;84;20986;-74
2022/08/06 13:06:51;;;;;;;3.35;1.98;;;;;;;22.81;48.10;100915.19;2090839;84;21054;-74
2022/08/06 13:09:53;;;;;;;2.65;2.02;;;;;;;22.98;48.48;100919.47;2074818;85;21024;-80
2022/08/06 13:13:01;;;;;;;2.55;1.77;;;;;;;23.31;48.07;100913.55;2076409;85;21078;-74
2022/08/06 13:16:07;;;;;;;2.17;1.98;;;;;;;23.45;47.93;100910.10;2074084;84;21078;-89
2022/08/06 13:19:20;;;;;;;3.00;2.00;;;;;;;23.47;47.90;100920.19;2080247;85;21525;-84
2022/08/06 13:22:24;;;;;;;2.58;2.00;;;;;;;23.36;46.82;100916.92;2079051;85;20959;-75
2022/08/06 13:25:25;;;;;;;3.62;1.90;;;;;;;23.24;46.45;100912.30;2076362;85;21061;-76
2022/08/06 13:28:26;;;;;;;2.00;1.70;;;;;;;23.39;47.54;100913.75;2057374;85;20994;-74
2022/08/06 13:31:28;;;;;;;2.25;1.87;;;;;;;23.58;47.41;100905.02;2079515;85;21073;-74
2022/08/06 13:34:29;;;;;;;3.42;1.90;;;;;;;23.77;46.94;100911.20;2079261;85;21489;-74
2022/08/06 13:37:51;;;;;;;3.15;1.80;;;;;;;23.88;46.47;100908.48;2077276;85;21009;-74
2022/08/06 13:40:52;;;;;;;1.77;1.45;;;;;;;24.06;46.37;100911.59;2079525;85;21046;-74
2022/08/06 13:43:57;;;;;;;2.02;1.80;;;;;;;24.18;46.04;100909.40;2078376;85;21007;-72
2022/08/06 13:47:00;;;;;;;4.33;1.98;;;;;;;24.01;45.70;100902.52;2077750;84;21057;-81
2022/08/06 13:50:01;;;;;;;2.70;1.92;;;;;;;24.07;46.29;100913.23;2076656;85;21001;-74
2022/08/06 13:53:04;;;;;;;7.30;1.65;;;;;;;24.19;45.59;100908.33;2073125;85;21037;-74
2022/08/06 13:56:06;;;;;;;4.28;1.95;;;;;;;24.26;45.03;100904.43;2078906;84;20981;-84
2022/08/06 13:59:07;;;;;;;3.30;1.92;;;;;;;24.02;45.01;100909.58;2074605;85;21336;-68
2022/08/06 14:02:11;;;;;;;2.15;1.77;;;;;;;23.87;44.79;100912.77;2074921;84;21000;-74
2022/08/06 14:05:12;;;;;;;3.67;1.60;;;;;;;23.75;44.59;100908.70;2072758;84;21103;-80
2022/08/06 14:08:13;;;;;;;3.95;1.65;;;;;;;23.65;44.46;100911.98;2060080;84;21050;-73
2022/08/06 14:11:14;;;;;;;2.02;1.60;;;;;;;23.33;44.90;100907.91;2049473;84;21524;-73
2022/08/06 14:14:15;;;;;;;5.20;2.60;;;;;;;23.13;45.47;100903.62;2074003;84;21016;-63
2022/08/06 14:17:17;;;;;;;3.92;2.00;;;;;;;22.97;45.37;100907.79;2073018;84;20978;-77
2022/08/06 14:20:18;;;;;;;4.75;1.75;;;;;;;22.81;45.66;100906.53;2075429;84;21031;-72
2022/08/06 14:23:19;;;;;;;2.08;1.32;;;;;;;22.79;44.85;100900.52;2076964;84;21039;-72
2022/08/06 14:26:20;;;;;;;3.40;1.50;;;;;;;22.84;45.72;100902.55;2075573;84;21078;-79
2022/08/06 14:29:21;;;;;;;3.45;1.77;;;;;;;22.93;45.44;100894.41;2075140;84;21058;-71